KCNY/CNY METAR and TAF weather

Enter ICAO airport designator
Station Type Date Time Source
KCNY METAR 2018/12/12 22:53 UTC NOAA

KCNY 122253Z AUTO 27020G27KT 10SM FEW120 03/M03 A2999 RMK AO2 PK WND 27027/2249 SLP176 T00331028


Station Type Date Time Source
KCNY Decoded METAR 2018/12/12 22:53 UTC NOAA

MOAB CANYONLANDS FIELD, UT, United States (KCNY) 38-46N 109-45W 1390M
Dec 12, 2018 - 05:53 PM EST / 2018.12.12 2253 UTC
Wind: from the W (270 degrees) at 23 MPH (20 KT) gusting to 31 MPH (27 KT):0
Visibility: 10 mile(s):0
Sky conditions: mostly clear
Temperature: 37.9 F (3.3 C)
Dew Point: 27.0 F (-2.8 C)
Relative Humidity: 64%
Pressure (altimeter): 29.99 in. Hg (1015 hPa)
ob: KCNY 122253Z AUTO 27020G27KT 10SM FEW120 03/M03 A2999 RMK AO2 PK WND 27027/2249 SLP176 T00331028
cycle: 23

Station Type Date Time Source
KCNY TAF 2018/12/12 22:15 UTC NOAA

TAF
AMD KCNY 122212Z 1222/1318 28014KT P6SM FEW070 SCT090 BKN130
FM130200 31012KT P6SM SKC


Example: see airport list